createdAt,value
2022-09-01T00:03:11.215Z,8.70
2022-09-01T00:07:54.672Z,12.00
2022-09-01T00:12:39.230Z,13.43
2022-09-01T00:17:24.102Z,6.73
2022-09-01T00:22:08.398Z,9.77
2022-09-01T00:26:51.912Z,9.30
2022-09-01T00:31:36.315Z,11.53
2022-09-01T00:36:22.093Z,8.17
2022-09-01T00:41:07.887Z,8.77
2022-09-01T00:45:52.642Z,7.27
2022-09-01T00:50:38.230Z,9.20
2022-09-01T00:55:26.384Z,7.73
2022-09-01T01:00:16.705Z,8.60
2022-09-01T01:05:00.805Z,9.10
2022-09-01T01:09:46.296Z,9.17
2022-09-01T01:14:32.095Z,6.70
2022-09-01T01:19:38.923Z,8.80
2022-09-01T01:24:26.739Z,6.83
2022-09-01T01:29:10.278Z,9.17
2022-09-01T01:33:55.885Z,10.77
2022-09-01T01:38:39.936Z,8.90
2022-09-01T01:43:25.163Z,13.53
2022-09-01T01:48:10.829Z,15.37
2022-09-01T01:52:55.180Z,15.57
2022-09-01T01:57:50.207Z,17.63
2022-09-01T02:02:35.066Z,17.07
2022-09-01T02:07:18.485Z,18.47
2022-09-01T02:12:01.961Z,13.53
2022-09-01T02:16:45.483Z,11.90
2022-09-01T02:21:30.533Z,11.40
2022-09-01T02:26:16.482Z,11.37
2022-09-01T02:31:04.070Z,18.40
2022-09-01T02:35:50.107Z,16.33
2022-09-01T02:40:35.117Z,11.70
2022-09-01T02:45:19.265Z,11.60
2022-09-01T02:50:03.553Z,13.20
2022-09-01T02:54:47.336Z,12.83
2022-09-01T02:59:32.331Z,13.10
2022-09-01T03:04:16.357Z,15.13
2022-09-01T03:09:00.920Z,13.03
2022-09-01T03:13:44.584Z,17.37
2022-09-01T03:18:29.425Z,19.60
2022-09-01T03:23:19.265Z,18.03
2022-09-01T03:28:03.332Z,22.13
2022-09-01T03:32:48.027Z,18.67
2022-09-01T03:37:32.848Z,20.40
2022-09-01T03:42:28.110Z,17.50
2022-09-01T03:47:15.477Z,16.67
2022-09-01T03:51:58.953Z,13.50
2022-09-01T03:56:43.917Z,14.37
2022-09-01T04:01:28.356Z,13.77
2022-09-01T04:06:12.884Z,11.83
2022-09-01T04:10:56.719Z,13.20
2022-09-01T04:15:41.577Z,11.83
2022-09-01T04:20:25.382Z,14.30
2022-09-01T04:25:10.006Z,12.63
2022-09-01T04:29:57.463Z,11.87
2022-09-01T04:34:42.634Z,10.23
2022-09-01T04:39:26.123Z,12.33
2022-09-01T04:44:10.785Z,13.30
2022-09-01T04:48:54.649Z,15.87
2022-09-01T04:53:40.507Z,10.83
2022-09-01T04:58:24.626Z,10.03
2022-09-01T05:03:09.588Z,12.40
2022-09-01T05:07:54.002Z,11.33
2022-09-01T05:12:38.904Z,12.53
2022-09-01T05:17:22.499Z,11.60
2022-09-01T05:22:09.188Z,13.63
2022-09-01T05:26:52.784Z,13.57
2022-09-01T05:31:38.099Z,15.20
2022-09-01T05:36:23.967Z,14.60
2022-09-01T05:41:10.049Z,10.93
2022-09-01T05:46:06.032Z,13.93
2022-09-01T05:50:56.397Z,10.60
2022-09-01T05:55:39.970Z,14.50
2022-09-01T06:00:23.585Z,11.60
2022-09-01T06:05:08.865Z,14.30
2022-09-01T06:09:53.923Z,13.13
2022-09-01T06:14:37.459Z,12.43
2022-09-01T06:19:21.099Z,12.27
2022-09-01T06:24:07.257Z,9.53
2022-09-01T06:28:54.647Z,13.50
2022-09-01T06:33:39.064Z,12.60
2022-09-01T06:38:22.630Z,8.80
2022-09-01T06:43:08.239Z,9.60
2022-09-01T06:47:59.662Z,8.83
2022-09-01T06:58:15.115Z,9.93
2022-09-01T07:02:58.403Z,10.07
2022-09-01T07:17:52.441Z,9.03
2022-09-01T07:23:02.979Z,11.47
2022-09-01T07:27:41.710Z,9.60
2022-09-01T07:47:53.812Z,12.40
2022-09-01T07:52:42.915Z,10.77
2022-09-01T07:57:26.734Z,9.37
2022-09-01T08:02:11.810Z,9.67
2022-09-01T08:06:56.061Z,7.50
2022-09-01T08:12:01.076Z,7.60
2022-09-01T08:16:52.430Z,8.47
2022-09-01T08:21:38.228Z,8.67
2022-09-01T08:26:24.722Z,11.37
2022-09-01T08:31:11.382Z,9.63
2022-09-01T08:35:55.542Z,7.97
2022-09-01T08:40:42.225Z,9.27
2022-09-01T08:45:31.686Z,7.22
2022-09-01T08:50:15.879Z,8.00
2022-09-01T08:55:04.186Z,9.00
2022-09-01T08:59:49.332Z,11.50
2022-09-01T09:04:49.442Z,7.72
2022-09-01T09:09:38.851Z,9.45
2022-09-01T09:14:36.847Z,6.63
2022-09-01T09:19:26.028Z,8.43
2022-09-01T09:24:21.587Z,8.15
2022-09-01T09:29:06.222Z,7.05
2022-09-01T09:33:52.692Z,9.05
2022-09-01T09:38:38.488Z,8.45
2022-09-01T09:43:25.610Z,9.35
2022-09-01T09:48:29.661Z,6.70
2022-09-01T09:53:17.182Z,6.47
2022-09-01T09:58:10.872Z,8.45
2022-09-01T10:02:57.548Z,6.78
2022-09-01T10:07:41.740Z,5.57
2022-09-01T10:12:27.511Z,5.05
2022-09-01T10:17:16.182Z,5.75
2022-09-01T10:22:00.347Z,6.68
2022-09-01T10:26:48.203Z,6.30
2022-09-01T10:31:33.032Z,5.15
2022-09-01T10:36:19.967Z,6.32
2022-09-01T10:41:14.115Z,8.80
2022-09-01T10:46:05.379Z,7.53
2022-09-01T10:50:50.710Z,6.97
2022-09-01T10:55:39.477Z,5.57
2022-09-01T11:06:18.455Z,3.40
2022-09-01T11:11:09.453Z,6.60
2022-09-01T11:15:54.679Z,3.65
2022-09-01T11:20:41.335Z,5.15
2022-09-01T11:25:39.644Z,4.38
2022-09-01T11:30:32.043Z,3.22
2022-09-01T11:35:20.713Z,3.63
2022-09-01T11:40:08.949Z,3.78
2022-09-01T11:44:58.993Z,4.88
2022-09-01T11:49:51.971Z,2.85
2022-09-01T11:54:42.831Z,3.22
2022-09-01T11:59:34.216Z,2.85
2022-09-01T12:04:23.595Z,3.40
2022-09-01T12:09:10.329Z,2.95
2022-09-01T12:14:01.266Z,3.15
2022-09-01T12:18:48.606Z,3.10
2022-09-01T12:23:34.962Z,5.25
2022-09-01T12:28:20.165Z,2.75
2022-09-01T12:38:31.726Z,2.95
2022-09-01T12:43:34.142Z,3.97
2022-09-01T12:48:29.482Z,2.72
2022-09-01T12:53:32.470Z,3.10
2022-09-01T12:58:23.129Z,2.10
2022-09-01T13:03:14.432Z,2.17
2022-09-01T13:07:59.170Z,3.67
2022-09-01T13:12:43.861Z,3.13
2022-09-01T13:17:31.542Z,3.10
2022-09-01T13:22:16.414Z,2.70
2022-09-01T13:32:20.715Z,4.10
2022-09-01T13:37:05.048Z,3.00
2022-09-01T13:41:50.160Z,2.15
2022-09-01T13:46:33.661Z,3.33
2022-09-01T13:51:26.818Z,2.50
2022-09-01T13:56:10.237Z,2.85
2022-09-01T14:00:56.550Z,4.22
2022-09-01T14:05:42.522Z,2.90
2022-09-01T14:10:28.104Z,3.17
2022-09-01T14:15:15.975Z,2.83
2022-09-01T14:20:01.851Z,1.70
2022-09-01T14:24:45.478Z,1.67
2022-09-01T14:29:29.710Z,2.10
2022-09-01T14:34:13.376Z,5.13
2022-09-01T14:38:58.847Z,2.03
2022-09-01T14:43:43.271Z,2.13
2022-09-01T14:48:27.621Z,1.80
2022-09-01T14:53:11.494Z,3.17
2022-09-01T14:57:57.715Z,2.10
2022-09-01T15:02:43.586Z,2.30
2022-09-01T15:07:27.219Z,3.15
2022-09-01T15:12:10.859Z,2.20
2022-09-01T15:16:55.773Z,3.28
2022-09-01T15:21:41.336Z,1.77
2022-09-01T15:26:25.049Z,1.88
2022-09-01T15:31:08.978Z,3.65
2022-09-01T15:35:54.609Z,1.88
2022-09-01T15:40:42.378Z,1.35
2022-09-01T15:45:26.984Z,2.67
2022-09-01T15:50:16.826Z,1.90
2022-09-01T15:55:06.928Z,2.17
2022-09-01T15:59:50.470Z,3.20
2022-09-01T16:04:34.252Z,4.70
2022-09-01T16:09:18.596Z,2.60
2022-09-01T16:14:03.721Z,2.30
2022-09-01T16:18:55.437Z,2.38
2022-09-01T16:23:43.257Z,2.28
2022-09-01T16:28:29.263Z,3.00
2022-09-01T16:33:20.159Z,12.13
2022-09-01T16:38:13.092Z,2.38
2022-09-01T16:43:04.241Z,3.80
2022-09-01T16:47:59.249Z,2.38
2022-09-01T16:53:04.305Z,2.47
2022-09-01T16:57:59.162Z,8.02
2022-09-01T17:02:52.737Z,4.53
2022-09-01T17:07:45.338Z,4.40
2022-09-01T17:12:39.514Z,5.28
2022-09-01T17:17:39.131Z,3.60
2022-09-01T17:22:23.301Z,3.38
2022-09-01T17:27:12.863Z,6.60
2022-09-01T17:32:08.227Z,4.10
2022-09-01T17:37:02.177Z,3.15
2022-09-01T17:41:54.792Z,4.78
2022-09-01T17:46:43.910Z,4.25
2022-09-01T17:51:35.305Z,7.60
2022-09-01T17:56:37.501Z,6.22
2022-09-01T18:01:30.998Z,5.05
2022-09-01T18:06:24.012Z,4.57
2022-09-01T18:11:14.477Z,4.47
2022-09-01T18:16:00.495Z,5.63
2022-09-01T18:20:46.146Z,4.03
2022-09-01T18:25:39.809Z,3.80
2022-09-01T18:30:51.718Z,5.82
2022-09-01T18:35:41.694Z,3.65
2022-09-01T18:40:30.690Z,4.25
2022-09-01T18:45:26.749Z,6.65
2022-09-01T18:50:26.405Z,8.07
2022-09-01T18:55:18.844Z,8.77
2022-09-01T19:00:18.956Z,8.50
2022-09-01T19:05:10.607Z,5.23
2022-09-01T19:10:04.227Z,7.63
2022-09-01T19:14:55.249Z,6.40
2022-09-01T19:19:44.573Z,4.77
2022-09-01T19:24:35.044Z,5.97
2022-09-01T19:29:24.297Z,9.77
2022-09-01T19:34:13.908Z,9.20
2022-09-01T19:39:03.619Z,7.60
2022-09-01T19:43:52.528Z,5.97
2022-09-01T19:48:44.701Z,5.07
2022-09-01T19:53:44.503Z,4.87
2022-09-01T19:58:39.794Z,5.80
2022-09-01T20:03:31.181Z,6.80
2022-09-01T20:08:21.309Z,7.03
2022-09-01T20:13:32.207Z,6.13
2022-09-01T20:18:25.707Z,4.90
2022-09-01T20:23:16.017Z,5.87
2022-09-01T20:28:05.635Z,4.90
2022-09-01T20:32:57.388Z,7.23
2022-09-01T20:37:46.775Z,6.93
2022-09-01T20:42:38.599Z,8.43
2022-09-01T20:47:25.084Z,6.70
2022-09-01T20:52:15.319Z,5.30
2022-09-01T20:57:05.226Z,4.80
2022-09-01T21:01:53.752Z,7.97
2022-09-01T21:06:55.609Z,5.00
2022-09-01T21:11:46.837Z,6.97
2022-09-01T21:16:40.872Z,4.87
2022-09-01T21:21:36.808Z,5.70
2022-09-01T21:26:21.978Z,5.93
2022-09-01T21:31:09.071Z,5.03
2022-09-01T21:35:53.306Z,7.07
2022-09-01T21:40:36.880Z,6.93
2022-09-01T21:45:23.030Z,8.00
2022-09-01T21:50:07.504Z,5.63
2022-09-01T21:54:51.221Z,6.10
2022-09-01T21:59:34.743Z,5.80
2022-09-01T22:04:20.194Z,6.87
2022-09-01T22:09:09.322Z,8.23
2022-09-01T22:14:05.317Z,6.50
2022-09-01T22:18:49.168Z,7.33
2022-09-01T22:23:34.485Z,9.33
2022-09-01T22:28:17.901Z,7.67
2022-09-01T22:33:02.910Z,10.67
2022-09-01T22:37:46.736Z,8.30
2022-09-01T22:42:31.560Z,8.17
2022-09-01T22:47:15.121Z,5.07
2022-09-01T22:51:58.540Z,6.33
2022-09-01T22:56:43.297Z,8.43
2022-09-01T23:01:32.947Z,6.97
2022-09-01T23:06:28.005Z,5.43
2022-09-01T23:11:12.450Z,4.97
2022-09-01T23:15:57.130Z,6.30
2022-09-01T23:20:42.012Z,5.80
2022-09-01T23:25:25.623Z,4.90
2022-09-01T23:30:13.310Z,6.53
2022-09-01T23:34:57.015Z,5.40
2022-09-01T23:39:41.785Z,8.80
2022-09-01T23:44:25.289Z,4.40
2022-09-01T23:49:08.968Z,5.07
2022-09-01T23:53:53.282Z,7.13
2022-09-01T23:58:38.317Z,6.93
